createdAt,value
2022-09-18T00:00:05.476Z,63.61
2022-09-18T00:03:04.857Z,63.63
2022-09-18T00:05:38.269Z,63.13
2022-09-18T00:08:10.941Z,63.10
2022-09-18T00:10:48.524Z,63.24
2022-09-18T00:13:20.653Z,63.23
2022-09-18T00:15:58.315Z,63.36
2022-09-18T00:18:30.527Z,63.24
2022-09-18T00:21:07.879Z,63.40
2022-09-18T00:23:40.818Z,63.45
2022-09-18T00:26:16.377Z,63.65
2022-09-18T00:28:48.658Z,63.56
2022-09-18T00:31:25.633Z,63.85
2022-09-18T00:33:59.008Z,63.87
2022-09-18T00:36:31.684Z,63.94
2022-09-18T00:39:05.327Z,64.09
2022-09-18T00:41:39.160Z,64.21
2022-09-18T00:44:35.670Z,64.11
2022-09-18T00:47:18.396Z,64.21
2022-09-18T00:49:56.228Z,64.12
2022-09-18T00:52:30.864Z,64.19
2022-09-18T00:55:07.586Z,64.03
2022-09-18T00:57:43.155Z,64.05
2022-09-18T01:00:16.529Z,64.24
2022-09-18T01:02:49.911Z,64.60
2022-09-18T01:05:32.726Z,64.88
2022-09-18T01:08:22.255Z,65.27
2022-09-18T01:11:10.176Z,65.64
2022-09-18T01:13:54.414Z,65.58
2022-09-18T01:16:35.333Z,65.83
2022-09-18T01:19:21.361Z,65.72
2022-09-18T01:22:01.906Z,65.95
2022-09-18T01:24:47.189Z,66.30
2022-09-18T01:27:24.323Z,65.92
2022-09-18T01:30:01.553Z,65.55
2022-09-18T01:32:36.887Z,65.75
2022-09-18T01:35:39.453Z,65.65
2022-09-18T01:38:14.757Z,65.60
2022-09-18T01:40:53.180Z,65.48
2022-09-18T01:43:29.106Z,64.91
2022-09-18T01:46:08.346Z,65.19
2022-09-18T01:48:47.164Z,65.42
2022-09-18T01:51:23.987Z,65.82
2022-09-18T01:54:00.765Z,66.02
2022-09-18T01:56:36.657Z,66.47
2022-09-18T01:59:12.780Z,66.44
2022-09-18T02:01:58.377Z,66.26
2022-09-18T02:04:37.302Z,65.76
2022-09-18T02:07:14.719Z,65.41
2022-09-18T02:09:47.721Z,65.42
2022-09-18T02:12:23.309Z,65.31
2022-09-18T02:15:00.479Z,65.81
2022-09-18T02:18:01.318Z,66.54
2022-09-18T02:20:43.419Z,66.80
2022-09-18T02:23:17.458Z,67.02
2022-09-18T02:25:53.961Z,67.20
2022-09-18T02:28:28.387Z,67.45
2022-09-18T02:31:00.507Z,67.27
2022-09-18T02:33:34.450Z,67.02
2022-09-18T02:36:33.164Z,67.11
2022-09-18T02:39:21.092Z,67.01
2022-09-18T02:42:04.043Z,67.11
2022-09-18T02:44:44.656Z,67.10
2022-09-18T02:47:30.794Z,67.16
2022-09-18T02:50:13.056Z,67.74
2022-09-18T02:52:53.152Z,67.91
2022-09-18T02:55:30.014Z,68.31
2022-09-18T02:58:06.883Z,68.96
2022-09-18T03:00:42.692Z,69.01
2022-09-18T03:03:19.188Z,69.24
2022-09-18T03:06:00.471Z,69.12
2022-09-18T03:08:32.879Z,68.71
2022-09-18T03:11:05.506Z,68.17
2022-09-18T03:13:38.030Z,68.26
2022-09-18T03:16:10.379Z,68.46
2022-09-18T03:18:42.811Z,68.67
2022-09-18T03:21:15.321Z,68.69
2022-09-18T03:23:48.143Z,68.85
2022-09-18T03:26:24.116Z,68.82
2022-09-18T03:28:56.203Z,68.54
2022-09-18T03:31:30.433Z,68.02
2022-09-18T03:34:06.064Z,67.94
2022-09-18T03:36:38.381Z,67.97
2022-09-18T03:39:12.019Z,68.18
2022-09-18T03:41:44.336Z,68.35
2022-09-18T03:44:17.803Z,69.00
2022-09-18T03:46:51.215Z,69.14
2022-09-18T03:49:25.670Z,69.47
2022-09-18T03:51:57.995Z,69.81
2022-09-18T03:54:33.668Z,70.16
2022-09-18T03:57:24.261Z,71.30
2022-09-18T04:00:05.289Z,71.73
2022-09-18T04:02:51.004Z,72.43
2022-09-18T04:05:52.337Z,72.84
2022-09-18T04:08:24.344Z,72.65
2022-09-18T04:11:05.782Z,72.66
2022-09-18T04:13:38.530Z,72.83
2022-09-18T04:16:13.390Z,73.04
2022-09-18T04:18:45.778Z,72.70
2022-09-18T04:21:17.872Z,73.05
2022-09-18T04:23:50.529Z,72.90
2022-09-18T04:26:26.418Z,73.03
2022-09-18T04:29:01.398Z,73.39
2022-09-18T04:31:35.329Z,73.05
2022-09-18T04:34:08.577Z,72.98
2022-09-18T04:36:41.024Z,72.77
2022-09-18T04:39:13.791Z,73.52
2022-09-18T04:41:46.965Z,74.03
2022-09-18T04:44:19.299Z,73.53
2022-09-18T04:46:52.077Z,73.58
2022-09-18T04:49:24.418Z,74.04
2022-09-18T04:51:56.552Z,73.88
2022-09-18T04:54:29.632Z,74.63
2022-09-18T04:57:02.420Z,75.32
2022-09-18T04:59:35.171Z,75.20
2022-09-18T05:02:07.781Z,75.02
2022-09-18T05:04:40.094Z,74.82
2022-09-18T05:07:19.129Z,74.74
2022-09-18T05:09:51.746Z,75.02
2022-09-18T05:12:24.284Z,74.99
2022-09-18T05:14:56.606Z,74.86
2022-09-18T05:17:29.882Z,74.99
2022-09-18T05:20:07.845Z,74.65
2022-09-18T05:22:47.459Z,74.52
2022-09-18T05:25:27.410Z,74.66
2022-09-18T05:28:01.887Z,74.72
2022-09-18T05:30:38.449Z,74.66
2022-09-18T05:33:12.096Z,74.99
2022-09-18T05:35:45.297Z,75.25
2022-09-18T05:38:17.276Z,74.41
2022-09-18T05:40:49.717Z,75.13
2022-09-18T05:43:21.993Z,75.05
2022-09-18T05:45:54.623Z,75.06
2022-09-18T05:48:32.602Z,75.31
2022-09-18T05:51:05.327Z,75.61
2022-09-18T05:53:37.994Z,75.94
2022-09-18T05:56:24.525Z,75.43
2022-09-18T05:58:57.328Z,75.35
2022-09-18T06:01:30.383Z,75.54
2022-09-18T06:04:13.946Z,75.78
2022-09-18T06:07:03.369Z,75.96
2022-09-18T06:09:36.021Z,75.15
2022-09-18T06:12:08.687Z,75.34
2022-09-18T06:14:40.985Z,75.70
2022-09-18T06:17:13.096Z,76.05
2022-09-18T06:19:45.822Z,76.09
2022-09-18T06:22:19.116Z,76.18
2022-09-18T06:24:51.181Z,76.37
2022-09-18T06:27:28.463Z,76.33
2022-09-18T06:30:00.812Z,76.09
2022-09-18T06:32:37.031Z,76.95
2022-09-18T06:35:11.609Z,77.03
2022-09-18T06:37:42.241Z,76.68
2022-09-18T06:40:18.986Z,76.69
2022-09-18T06:43:11.808Z,77.23
2022-09-18T06:46:01.969Z,76.79
2022-09-18T06:48:40.841Z,76.92
2022-09-18T06:51:13.584Z,76.95
2022-09-18T06:54:05.456Z,76.47
2022-09-18T06:56:37.865Z,76.37
2022-09-18T06:59:14.571Z,76.40
2022-09-18T07:01:48.696Z,76.93
2022-09-18T07:04:25.129Z,76.13
2022-09-18T07:06:57.121Z,75.61
2022-09-18T07:09:32.748Z,75.53
2022-09-18T07:12:11.390Z,75.41
2022-09-18T07:14:53.830Z,75.64
2022-09-18T07:17:26.726Z,75.18
2022-09-18T07:20:01.013Z,75.14
2022-09-18T07:22:47.214Z,75.61
2022-09-18T07:25:19.864Z,75.59
2022-09-18T07:27:53.137Z,75.64
2022-09-18T07:30:25.874Z,75.19
2022-09-18T07:32:58.214Z,74.95
2022-09-18T07:35:32.889Z,74.92
2022-09-18T07:38:09.735Z,74.74
2022-09-18T07:40:52.740Z,75.22
2022-09-18T07:43:40.372Z,74.77
2022-09-18T07:46:12.473Z,74.52
2022-09-18T07:48:44.801Z,74.85
2022-09-18T07:51:27.862Z,74.78
2022-09-18T07:54:01.573Z,74.40
2022-09-18T07:56:50.056Z,74.16
2022-09-18T07:59:25.592Z,73.67
2022-09-18T08:02:02.343Z,73.62
2022-09-18T08:04:37.279Z,73.79
2022-09-18T08:07:18.932Z,73.82
2022-09-18T08:10:14.450Z,73.54
2022-09-18T08:12:57.335Z,73.13
2022-09-18T08:15:49.019Z,72.98
2022-09-18T08:18:40.028Z,72.96
2022-09-18T08:21:35.792Z,73.35
2022-09-18T08:24:14.102Z,72.91
2022-09-18T08:26:46.660Z,72.50
2022-09-18T08:29:20.064Z,72.85
2022-09-18T08:32:06.535Z,72.61
2022-09-18T08:34:41.982Z,72.29
2022-09-18T08:37:16.083Z,72.51
2022-09-18T08:40:10.762Z,71.93
2022-09-18T08:43:00.761Z,71.91
2022-09-18T08:45:46.103Z,71.98
2022-09-18T08:48:22.488Z,72.19
2022-09-18T08:50:59.936Z,71.75
2022-09-18T08:53:37.662Z,71.35
2022-09-18T08:56:30.204Z,71.13
2022-09-18T08:59:36.828Z,70.68
2022-09-18T09:02:25.453Z,70.70
2022-09-18T09:05:03.825Z,70.63
2022-09-18T09:07:51.570Z,70.20
2022-09-18T09:10:39.160Z,69.73
2022-09-18T09:13:39.135Z,69.64
2022-09-18T09:16:18.131Z,69.49
2022-09-18T09:19:01.365Z,69.78
2022-09-18T09:21:52.305Z,69.62
2022-09-18T09:24:35.793Z,69.56
2022-09-18T09:27:21.000Z,70.29
2022-09-18T09:30:17.865Z,71.65
2022-09-18T09:33:17.607Z,72.98
2022-09-18T09:36:09.466Z,74.43
2022-09-18T09:38:55.597Z,75.01
2022-09-18T09:41:36.190Z,76.00
2022-09-18T09:44:32.633Z,75.45
2022-09-18T09:47:15.766Z,76.11
2022-09-18T09:50:01.332Z,76.04
2022-09-18T09:52:33.823Z,76.37
2022-09-18T09:55:22.192Z,77.12
2022-09-18T09:58:15.791Z,77.95
2022-09-18T10:00:58.256Z,78.18
2022-09-18T10:03:42.442Z,78.13
2022-09-18T10:06:32.863Z,77.16
2022-09-18T10:09:11.272Z,76.97
2022-09-18T10:11:49.239Z,75.44
2022-09-18T10:14:26.550Z,74.48
2022-09-18T10:17:00.570Z,73.91
2022-09-18T10:19:39.306Z,73.05
2022-09-18T10:22:15.923Z,73.50
2022-09-18T10:24:55.668Z,74.35
2022-09-18T10:27:29.783Z,74.56
2022-09-18T10:30:05.759Z,74.19
2022-09-18T10:32:47.766Z,73.29
2022-09-18T10:35:43.711Z,72.26
2022-09-18T10:38:39.852Z,72.28
2022-09-18T10:41:34.402Z,71.80
2022-09-18T10:44:28.253Z,72.65
2022-09-18T10:47:09.967Z,72.73
2022-09-18T10:49:53.046Z,72.70
2022-09-18T10:52:32.746Z,72.53
2022-09-18T10:55:19.499Z,72.40
2022-09-18T10:58:15.629Z,72.95
2022-09-18T11:00:57.602Z,73.00
2022-09-18T11:03:49.791Z,73.03
2022-09-18T11:06:32.282Z,73.16
2022-09-18T11:09:12.828Z,71.45
2022-09-18T11:11:51.529Z,70.81
2022-09-18T11:14:29.788Z,68.91
2022-09-18T11:17:08.707Z,68.06
2022-09-18T11:19:50.155Z,67.77
2022-09-18T11:22:38.778Z,67.00
2022-09-18T11:25:23.550Z,66.36
2022-09-18T11:28:00.048Z,64.73
2022-09-18T11:30:39.020Z,63.83
2022-09-18T11:33:21.756Z,62.59
2022-09-18T11:36:01.235Z,62.04
2022-09-18T11:38:39.622Z,61.77
2022-09-18T11:41:13.617Z,61.11
2022-09-18T11:44:01.047Z,60.76
2022-09-18T11:46:47.667Z,60.22
2022-09-18T11:49:25.027Z,59.24
2022-09-18T11:52:02.141Z,59.31
2022-09-18T11:54:51.652Z,58.96
2022-09-18T11:57:27.171Z,59.58
2022-09-18T12:00:06.688Z,59.32
2022-09-18T12:02:58.556Z,59.40
2022-09-18T12:05:35.340Z,59.38
2022-09-18T12:08:16.207Z,58.92
2022-09-18T12:11:04.562Z,58.52
2022-09-18T12:13:48.695Z,58.26
2022-09-18T12:16:28.499Z,58.45
2022-09-18T12:19:04.557Z,57.44
2022-09-18T12:21:45.979Z,57.03
2022-09-18T12:24:19.093Z,55.78
2022-09-18T12:27:12.062Z,55.35
2022-09-18T12:30:01.182Z,54.21
2022-09-18T12:32:54.266Z,52.43
2022-09-18T12:35:38.966Z,51.20
2022-09-18T12:38:17.058Z,50.68
2022-09-18T12:41:08.441Z,50.79
2022-09-18T12:44:02.846Z,49.88
2022-09-18T12:46:46.846Z,50.42
2022-09-18T12:49:40.075Z,50.76
2022-09-18T12:52:27.458Z,50.63
2022-09-18T12:55:36.639Z,51.09
2022-09-18T12:58:20.651Z,50.89
2022-09-18T13:00:54.540Z,51.28
2022-09-18T13:03:33.394Z,51.37
2022-09-18T13:06:11.051Z,50.52
2022-09-18T13:08:48.054Z,50.99
2022-09-18T13:11:26.229Z,50.75
2022-09-18T13:14:04.714Z,50.70
2022-09-18T13:16:42.237Z,50.57
2022-09-18T13:19:19.741Z,48.87
2022-09-18T13:21:52.746Z,48.43
2022-09-18T13:24:29.720Z,46.70
2022-09-18T13:27:03.521Z,46.47
2022-09-18T13:29:59.112Z,47.41
2022-09-18T13:32:42.948Z,48.54
2022-09-18T13:35:25.496Z,47.71
2022-09-18T13:38:17.691Z,47.52
2022-09-18T13:40:57.878Z,47.80
2022-09-18T13:43:47.036Z,48.50
2022-09-18T13:46:34.607Z,48.62
2022-09-18T13:49:20.448Z,49.09
2022-09-18T13:51:52.763Z,49.22
2022-09-18T13:54:28.948Z,49.38
2022-09-18T13:57:21.453Z,49.45
2022-09-18T14:00:01.803Z,49.34
2022-09-18T14:02:44.487Z,49.48
2022-09-18T14:05:31.858Z,50.32
2022-09-18T14:08:14.538Z,49.42
2022-09-18T14:11:16.971Z,48.95
2022-09-18T14:13:55.611Z,49.22
2022-09-18T14:16:31.991Z,49.39
2022-09-18T14:19:08.453Z,48.94
2022-09-18T14:21:45.604Z,47.79
2022-09-18T14:24:38.939Z,47.62
2022-09-18T14:27:31.180Z,47.93
2022-09-18T14:30:14.461Z,48.41
2022-09-18T14:32:57.121Z,48.76
2022-09-18T14:35:38.158Z,49.06
2022-09-18T14:38:25.086Z,49.36
2022-09-18T14:41:00.603Z,48.43
2022-09-18T14:43:33.023Z,48.42
2022-09-18T14:46:06.816Z,49.63
2022-09-18T14:48:40.449Z,50.20
2022-09-18T14:51:22.633Z,49.15
2022-09-18T14:58:42.796Z,48.63
2022-09-18T15:03:33.984Z,48.34
2022-09-18T15:06:35.209Z,48.84
2022-09-18T15:12:59.436Z,49.06
2022-09-18T15:15:34.771Z,49.65
2022-09-18T15:18:23.847Z,49.21
2022-09-18T15:20:57.323Z,49.68
2022-09-18T15:23:31.848Z,50.12
2022-09-18T15:26:07.027Z,51.33
2022-09-18T15:28:42.211Z,52.48
2022-09-18T15:31:16.170Z,53.32
2022-09-18T15:33:55.161Z,53.38
2022-09-18T15:36:31.939Z,54.02
2022-09-18T15:39:05.874Z,54.58
2022-09-18T15:41:43.135Z,53.74
2022-09-18T15:44:46.309Z,53.08
2022-09-18T15:47:37.127Z,52.45
2022-09-18T15:50:34.075Z,52.24
2022-09-18T15:53:24.204Z,53.18
2022-09-18T15:56:00.163Z,53.09
2022-09-18T15:58:58.008Z,54.00
2022-09-18T16:01:35.535Z,53.98
2022-09-18T16:04:17.176Z,54.29
2022-09-18T16:06:56.049Z,55.25
2022-09-18T16:09:36.836Z,55.88
2022-09-18T16:12:35.717Z,55.64
2022-09-18T16:15:25.602Z,55.95
2022-09-18T16:18:04.158Z,56.92
2022-09-18T16:21:01.592Z,57.07
2022-09-18T16:23:35.387Z,57.43
2022-09-18T16:26:10.641Z,56.96
2022-09-18T16:28:46.207Z,57.15
2022-09-18T16:31:21.221Z,57.36
2022-09-18T16:33:57.422Z,57.40
2022-09-18T16:36:34.244Z,57.40
2022-09-18T16:39:08.789Z,57.50
2022-09-18T16:41:40.869Z,58.29
2022-09-18T16:44:15.483Z,58.59
2022-09-18T16:46:50.974Z,59.17
2022-09-18T16:49:27.082Z,59.46
2022-09-18T16:51:59.777Z,59.26
2022-09-18T16:54:32.041Z,59.86
2022-09-18T16:57:07.783Z,60.52
2022-09-18T16:59:43.663Z,60.64
2022-09-18T17:02:19.255Z,60.71
2022-09-18T17:04:51.533Z,60.54
2022-09-18T17:07:23.709Z,60.80
2022-09-18T17:09:56.338Z,61.38
2022-09-18T17:12:29.339Z,61.68
2022-09-18T17:15:01.594Z,61.43
2022-09-18T17:17:34.244Z,61.18
2022-09-18T17:20:08.246Z,61.54
2022-09-18T17:22:41.546Z,61.44
2022-09-18T17:25:14.667Z,61.92
2022-09-18T17:27:47.980Z,62.06
2022-09-18T17:30:20.419Z,62.02
2022-09-18T17:32:52.918Z,62.33
2022-09-18T17:35:25.916Z,62.21
2022-09-18T17:37:59.083Z,62.39
2022-09-18T17:40:31.375Z,62.06
2022-09-18T17:43:03.976Z,62.03
2022-09-18T17:45:36.345Z,61.94
2022-09-18T17:48:09.212Z,62.41
2022-09-18T17:50:41.632Z,62.74
2022-09-18T17:53:14.463Z,62.70
2022-09-18T17:55:51.127Z,62.65
2022-09-18T17:58:23.219Z,62.77
2022-09-18T18:00:56.117Z,62.73
2022-09-18T18:03:31.099Z,62.74
2022-09-18T18:06:03.555Z,62.95
2022-09-18T18:08:35.513Z,63.11
2022-09-18T18:11:09.869Z,63.33
2022-09-18T18:13:43.613Z,63.40
2022-09-18T18:16:23.496Z,63.64
2022-09-18T18:18:58.018Z,63.66
2022-09-18T18:21:31.351Z,63.66
2022-09-18T18:24:06.246Z,64.05
2022-09-18T18:26:39.569Z,64.00
2022-09-18T18:29:17.908Z,63.85
2022-09-18T18:31:51.790Z,63.96
2022-09-18T18:34:25.366Z,63.93
2022-09-18T18:36:57.640Z,63.97
2022-09-18T18:39:29.895Z,63.88
2022-09-18T18:42:02.087Z,63.91
2022-09-18T18:44:34.554Z,64.01
2022-09-18T18:47:07.022Z,63.78
2022-09-18T18:49:40.154Z,63.79
2022-09-18T18:52:12.903Z,63.55
2022-09-18T18:54:45.972Z,63.66
2022-09-18T18:57:18.063Z,63.79
2022-09-18T18:59:50.875Z,63.73
2022-09-18T19:02:23.137Z,63.82
2022-09-18T19:05:02.217Z,63.93
2022-09-18T19:07:34.781Z,64.13
2022-09-18T19:10:07.734Z,64.30
2022-09-18T19:12:40.097Z,64.36
2022-09-18T19:15:13.049Z,64.59
2022-09-18T19:17:46.470Z,64.71
2022-09-18T19:20:19.461Z,65.09
2022-09-18T19:22:56.917Z,65.35
2022-09-18T19:25:30.279Z,65.37
2022-09-18T19:28:02.475Z,65.49
2022-09-18T19:30:38.691Z,65.41
2022-09-18T19:33:16.085Z,65.66
2022-09-18T19:35:51.466Z,65.81
2022-09-18T19:38:23.609Z,65.88
2022-09-18T19:40:56.064Z,65.77
2022-09-18T19:43:32.514Z,66.06
2022-09-18T19:46:05.384Z,65.91
2022-09-18T19:48:37.879Z,65.16
2022-09-18T19:51:10.399Z,65.43
2022-09-18T19:53:42.623Z,65.12
2022-09-18T19:56:33.388Z,65.06
2022-09-18T19:59:10.206Z,65.33
2022-09-18T20:01:42.497Z,65.10
2022-09-18T20:04:14.732Z,64.88
2022-09-18T20:06:47.248Z,64.92
2022-09-18T20:09:19.469Z,65.19
2022-09-18T20:11:51.516Z,65.42
2022-09-18T20:14:24.305Z,65.19
2022-09-18T20:16:57.700Z,65.53
2022-09-18T20:19:30.830Z,65.73
2022-09-18T20:22:03.069Z,65.85
2022-09-18T20:24:35.940Z,65.87
2022-09-18T20:27:08.407Z,65.99
2022-09-18T20:29:41.336Z,65.90
2022-09-18T20:32:13.454Z,65.95
2022-09-18T20:34:47.874Z,65.44
2022-09-18T20:37:20.182Z,65.75
2022-09-18T20:39:52.815Z,65.68
2022-09-18T20:42:25.790Z,65.91
2022-09-18T20:45:02.444Z,65.92
2022-09-18T20:47:36.372Z,66.22
2022-09-18T20:50:11.771Z,66.12
2022-09-18T20:52:45.404Z,66.15
2022-09-18T20:55:18.726Z,66.49
2022-09-18T20:57:51.545Z,66.52
2022-09-18T21:00:23.900Z,66.40
2022-09-18T21:02:56.983Z,66.58
2022-09-18T21:05:29.057Z,66.62
2022-09-18T21:08:03.851Z,66.66
2022-09-18T21:10:46.724Z,67.16
2022-09-18T21:13:20.099Z,67.25
2022-09-18T21:15:52.665Z,67.04
2022-09-18T21:18:24.695Z,67.12
2022-09-18T21:21:05.722Z,67.22
2022-09-18T21:23:58.535Z,67.12
2022-09-18T21:26:33.225Z,67.44
2022-09-18T21:29:04.898Z,67.60
2022-09-18T21:31:42.764Z,67.13
2022-09-18T21:34:17.036Z,66.93
2022-09-18T21:36:49.180Z,67.22
2022-09-18T21:39:21.615Z,67.40
2022-09-18T21:41:53.659Z,67.94
2022-09-18T21:44:27.969Z,67.84
2022-09-18T21:47:02.109Z,67.82
2022-09-18T21:49:36.322Z,67.89
2022-09-18T21:52:09.300Z,67.89
2022-09-18T21:54:41.362Z,68.08
2022-09-18T21:57:14.128Z,67.63
2022-09-18T21:59:46.563Z,67.67
2022-09-18T22:02:20.582Z,67.93
2022-09-18T22:04:55.089Z,68.15
2022-09-18T22:07:27.560Z,67.65
2022-09-18T22:09:59.650Z,67.93
2022-09-18T22:12:32.894Z,68.18
2022-09-18T22:15:05.268Z,68.05
2022-09-18T22:17:38.363Z,68.01
2022-09-18T22:20:11.171Z,68.36
2022-09-18T22:22:43.823Z,68.23
2022-09-18T22:25:16.028Z,68.64
2022-09-18T22:27:48.794Z,68.31
2022-09-18T22:30:21.296Z,68.41
2022-09-18T22:32:53.451Z,68.35
2022-09-18T22:35:25.459Z,68.55
2022-09-18T22:37:57.986Z,68.50
2022-09-18T22:40:30.193Z,68.50
2022-09-18T22:43:02.294Z,68.44
2022-09-18T22:45:34.413Z,68.04
2022-09-18T22:48:06.641Z,67.94
2022-09-18T22:50:38.566Z,67.56
2022-09-18T22:53:10.790Z,67.56
2022-09-18T22:55:43.277Z,67.54
2022-09-18T22:58:15.757Z,67.39
2022-09-18T23:00:48.894Z,67.15
2022-09-18T23:03:21.239Z,67.21
2022-09-18T23:05:53.264Z,67.13
2022-09-18T23:08:25.275Z,67.15
2022-09-18T23:10:57.356Z,67.02
2022-09-18T23:13:29.317Z,67.11
2022-09-18T23:16:04.072Z,67.32
2022-09-18T23:18:36.572Z,67.47
2022-09-18T23:21:11.543Z,67.76
2022-09-18T23:23:47.151Z,68.13
2022-09-18T23:26:23.273Z,68.20
2022-09-18T23:28:57.751Z,68.23
2022-09-18T23:31:31.650Z,67.87
2022-09-18T23:34:06.373Z,67.84
2022-09-18T23:36:37.952Z,67.89
2022-09-18T23:39:13.222Z,67.99
2022-09-18T23:41:46.366Z,67.91
2022-09-18T23:44:20.405Z,67.70
2022-09-18T23:46:52.940Z,67.99
2022-09-18T23:49:24.960Z,68.71
2022-09-18T23:51:57.362Z,69.03
2022-09-18T23:54:31.241Z,68.94
2022-09-18T23:57:03.239Z,69.08
2022-09-18T23:59:35.763Z,68.79
